sensor_id;sensor_type;location;lat;lon;timestamp;temperature;humidity
67364;HTU21D;54250;45.572;38.086;2024-03-08T00:00:37;-0.57;90.78
67364;HTU21D;54250;45.572;38.086;2024-03-08T00:03:04;-0.54;90.73
67364;HTU21D;54250;45.572;38.086;2024-03-08T00:05:30;-0.56;90.76
67364;HTU21D;54250;45.572;38.086;2024-03-08T00:07:57;-0.56;90.75
67364;HTU21D;54250;45.572;38.086;2024-03-08T00:10:23;-0.59;90.72
67364;HTU21D;54250;45.572;38.086;2024-03-08T00:12:49;-0.60;90.79
67364;HTU21D;54250;45.572;38.086;2024-03-08T00:15:17;-0.60;90.84
67364;HTU21D;54250;45.572;38.086;2024-03-08T00:17:44;-0.58;90.86
67364;HTU21D;54250;45.572;38.086;2024-03-08T00:20:10;-0.58;90.95
67364;HTU21D;54250;45.572;38.086;2024-03-08T00:22:37;-0.59;90.85
67364;HTU21D;54250;45.572;38.086;2024-03-08T00:25:04;-0.62;90.96
67364;HTU21D;54250;45.572;38.086;2024-03-08T00:27:31;-0.66;90.95
67364;HTU21D;54250;45.572;38.086;2024-03-08T00:30:00;-0.71;90.98
67364;HTU21D;54250;45.572;38.086;2024-03-08T00:32:26;-0.75;91.06
67364;HTU21D;54250;45.572;38.086;2024-03-08T00:34:53;-0.81;91.10
67364;HTU21D;54250;45.572;38.086;2024-03-08T00:37:22;-0.86;91.27
67364;HTU21D;54250;45.572;38.086;2024-03-08T00:39:49;-0.84;91.25
67364;HTU21D;54250;45.572;38.086;2024-03-08T00:42:16;-0.89;91.15
67364;HTU21D;54250;45.572;38.086;2024-03-08T00:44:42;-0.95;91.21
67364;HTU21D;54250;45.572;38.086;2024-03-08T00:47:08;-0.97;91.21
67364;HTU21D;54250;45.572;38.086;2024-03-08T00:49:34;-1.01;91.18
67364;HTU21D;54250;45.572;38.086;2024-03-08T00:52:02;-1.03;91.25
67364;HTU21D;54250;45.572;38.086;2024-03-08T00:54:28;-1.05;91.12
67364;HTU21D;54250;45.572;38.086;2024-03-08T00:56:56;-1.10;91.19
67364;HTU21D;54250;45.572;38.086;2024-03-08T00:59:21;-1.09;91.21
67364;HTU21D;54250;45.572;38.086;2024-03-08T01:01:47;-1.08;91.11
67364;HTU21D;54250;45.572;38.086;2024-03-08T01:04:13;-1.09;91.02
67364;HTU21D;54250;45.572;38.086;2024-03-08T01:06:39;-1.09;91.11
67364;HTU21D;54250;45.572;38.086;2024-03-08T01:09:05;-1.11;91.05
67364;HTU21D;54250;45.572;38.086;2024-03-08T01:11:33;-1.13;91.08
67364;HTU21D;54250;45.572;38.086;2024-03-08T01:13:59;-1.15;91.08
67364;HTU21D;54250;45.572;38.086;2024-03-08T01:16:25;-1.18;91.13
67364;HTU21D;54250;45.572;38.086;2024-03-08T01:18:51;-1.17;91.33
67364;HTU21D;54250;45.572;38.086;2024-03-08T01:21:17;-1.13;91.21
67364;HTU21D;54250;45.572;38.086;2024-03-08T01:23:43;-1.12;91.16
67364;HTU21D;54250;45.572;38.086;2024-03-08T01:26:09;-1.11;91.06
67364;HTU21D;54250;45.572;38.086;2024-03-08T01:28:35;-1.10;91.04
67364;HTU21D;54250;45.572;38.086;2024-03-08T01:31:01;-1.09;90.98
67364;HTU21D;54250;45.572;38.086;2024-03-08T01:33:29;-1.10;91.03
67364;HTU21D;54250;45.572;38.086;2024-03-08T01:35:57;-1.05;91.08
67364;HTU21D;54250;45.572;38.086;2024-03-08T01:38:23;-1.05;90.98
67364;HTU21D;54250;45.572;38.086;2024-03-08T01:40:50;-1.03;90.99
67364;HTU21D;54250;45.572;38.086;2024-03-08T01:43:27;-1.03;90.86
67364;HTU21D;54250;45.572;38.086;2024-03-08T01:45:56;-1.04;90.95
67364;HTU21D;54250;45.572;38.086;2024-03-08T01:48:24;-1.09;90.97
67364;HTU21D;54250;45.572;38.086;2024-03-08T01:50:51;-1.12;91.06
67364;HTU21D;54250;45.572;38.086;2024-03-08T01:53:19;-1.13;91.07
67364;HTU21D;54250;45.572;38.086;2024-03-08T01:55:47;-1.18;91.10
67364;HTU21D;54250;45.572;38.086;2024-03-08T01:58:13;-1.20;91.15
67364;HTU21D;54250;45.572;38.086;2024-03-08T02:00:48;-1.20;91.05
67364;HTU21D;54250;45.572;38.086;2024-03-08T02:03:17;-1.23;91.10
67364;HTU21D;54250;45.572;38.086;2024-03-08T02:05:43;-1.24;91.06
67364;HTU21D;54250;45.572;38.086;2024-03-08T02:08:10;-1.25;91.03
67364;HTU21D;54250;45.572;38.086;2024-03-08T02:10:49;-1.27;91.00
67364;HTU21D;54250;45.572;38.086;2024-03-08T02:13:15;-1.31;91.04
67364;HTU21D;54250;45.572;38.086;2024-03-08T02:15:51;-1.32;90.95
67364;HTU21D;54250;45.572;38.086;2024-03-08T02:18:17;-1.34;91.02
67364;HTU21D;54250;45.572;38.086;2024-03-08T02:20:43;-1.38;90.99
67364;HTU21D;54250;45.572;38.086;2024-03-08T02:23:09;-1.42;91.05
67364;HTU21D;54250;45.572;38.086;2024-03-08T02:25:35;-1.46;91.05
67364;HTU21D;54250;45.572;38.086;2024-03-08T02:28:01;-1.52;91.04
67364;HTU21D;54250;45.572;38.086;2024-03-08T02:30:28;-1.56;91.11
67364;HTU21D;54250;45.572;38.086;2024-03-08T02:32:55;-1.58;91.08
67364;HTU21D;54250;45.572;38.086;2024-03-08T02:35:22;-1.61;91.05
67364;HTU21D;54250;45.572;38.086;2024-03-08T02:37:47;-1.65;91.14
67364;HTU21D;54250;45.572;38.086;2024-03-08T02:40:14;-1.68;91.08
67364;HTU21D;54250;45.572;38.086;2024-03-08T02:42:40;-1.71;91.11
67364;HTU21D;54250;45.572;38.086;2024-03-08T02:45:06;-1.73;91.06
67364;HTU21D;54250;45.572;38.086;2024-03-08T02:47:35;-1.79;91.03
67364;HTU21D;54250;45.572;38.086;2024-03-08T02:50:01;-1.86;91.10
67364;HTU21D;54250;45.572;38.086;2024-03-08T02:52:27;-1.91;91.15
67364;HTU21D;54250;45.572;38.086;2024-03-08T02:54:53;-1.93;91.22
67364;HTU21D;54250;45.572;38.086;2024-03-08T02:57:19;-1.98;91.16
67364;HTU21D;54250;45.572;38.086;2024-03-08T02:59:45;-2.00;91.27
67364;HTU21D;54250;45.572;38.086;2024-03-08T03:02:11;-1.98;91.18
67364;HTU21D;54250;45.572;38.086;2024-03-08T03:04:40;-1.95;91.04
67364;HTU21D;54250;45.572;38.086;2024-03-08T03:07:06;-1.91;90.95
67364;HTU21D;54250;45.572;38.086;2024-03-08T03:09:31;-1.91;90.88
67364;HTU21D;54250;45.572;38.086;2024-03-08T03:11:59;-1.86;90.82
67364;HTU21D;54250;45.572;38.086;2024-03-08T03:14:24;-1.87;90.79
67364;HTU21D;54250;45.572;38.086;2024-03-08T03:16:52;-1.85;90.82
67364;HTU21D;54250;45.572;38.086;2024-03-08T03:19:20;-1.84;90.76
67364;HTU21D;54250;45.572;38.086;2024-03-08T03:21:46;-1.85;90.71
67364;HTU21D;54250;45.572;38.086;2024-03-08T03:24:12;-1.87;90.70
67364;HTU21D;54250;45.572;38.086;2024-03-08T03:26:41;-1.90;90.79
67364;HTU21D;54250;45.572;38.086;2024-03-08T03:29:09;-1.92;90.82
67364;HTU21D;54250;45.572;38.086;2024-03-08T03:31:36;-1.94;90.79
67364;HTU21D;54250;45.572;38.086;2024-03-08T03:34:02;-1.93;90.79
67364;HTU21D;54250;45.572;38.086;2024-03-08T03:36:30;-1.94;90.68
67364;HTU21D;54250;45.572;38.086;2024-03-08T03:38:56;-1.99;90.74
67364;HTU21D;54250;45.572;38.086;2024-03-08T03:41:42;-2.03;90.66
67364;HTU21D;54250;45.572;38.086;2024-03-08T03:44:10;-2.12;90.82
67364;HTU21D;54250;45.572;38.086;2024-03-08T03:46:36;-2.16;90.83
67364;HTU21D;54250;45.572;38.086;2024-03-08T03:49:02;-2.21;90.89
67364;HTU21D;54250;45.572;38.086;2024-03-08T03:51:29;-2.29;90.88
67364;HTU21D;54250;45.572;38.086;2024-03-08T03:53:55;-2.29;91.07
67364;HTU21D;54250;45.572;38.086;2024-03-08T03:56:26;-2.27;90.92
67364;HTU21D;54250;45.572;38.086;2024-03-08T03:58:52;-2.26;90.89
67364;HTU21D;54250;45.572;38.086;2024-03-08T04:01:18;-2.28;90.80
67364;HTU21D;54250;45.572;38.086;2024-03-08T04:03:45;-2.31;90.82
67364;HTU21D;54250;45.572;38.086;2024-03-08T04:06:11;-2.33;90.79
67364;HTU21D;54250;45.572;38.086;2024-03-08T04:08:37;-2.39;90.83
67364;HTU21D;54250;45.572;38.086;2024-03-08T04:11:03;-2.46;90.92
67364;HTU21D;54250;45.572;38.086;2024-03-08T04:13:29;-2.46;91.02
67364;HTU21D;54250;45.572;38.086;2024-03-08T04:15:55;-2.44;90.92
67364;HTU21D;54250;45.572;38.086;2024-03-08T04:18:21;-2.41;90.82
67364;HTU21D;54250;45.572;38.086;2024-03-08T04:20:47;-2.36;90.75
67364;HTU21D;54250;45.572;38.086;2024-03-08T04:23:13;-2.30;90.69
67364;HTU21D;54250;45.572;38.086;2024-03-08T04:25:39;-2.22;90.59
67364;HTU21D;54250;45.572;38.086;2024-03-08T04:28:08;-2.12;90.37
67364;HTU21D;54250;45.572;38.086;2024-03-08T04:30:38;-2.01;90.21
67364;HTU21D;54250;45.572;38.086;2024-03-08T04:33:05;-1.91;90.12
67364;HTU21D;54250;45.572;38.086;2024-03-08T04:35:32;-1.82;90.07
67364;HTU21D;54250;45.572;38.086;2024-03-08T04:37:58;-1.74;90.02
67364;HTU21D;54250;45.572;38.086;2024-03-08T04:40:25;-1.62;89.90
67364;HTU21D;54250;45.572;38.086;2024-03-08T04:42:52;-1.55;89.80
67364;HTU21D;54250;45.572;38.086;2024-03-08T04:45:18;-1.50;89.91
67364;HTU21D;54250;45.572;38.086;2024-03-08T04:47:44;-1.42;89.80
67364;HTU21D;54250;45.572;38.086;2024-03-08T04:50:10;-1.31;89.73
67364;HTU21D;54250;45.572;38.086;2024-03-08T04:52:37;-1.23;89.61
67364;HTU21D;54250;45.572;38.086;2024-03-08T04:55:03;-1.17;89.55
67364;HTU21D;54250;45.572;38.086;2024-03-08T04:57:33;-1.10;89.64
67364;HTU21D;54250;45.572;38.086;2024-03-08T05:00:04;-0.95;89.50
67364;HTU21D;54250;45.572;38.086;2024-03-08T05:02:39;-0.88;89.31
67364;HTU21D;54250;45.572;38.086;2024-03-08T05:05:07;-0.83;89.40
67364;HTU21D;54250;45.572;38.086;2024-03-08T05:07:35;-0.83;89.44
67364;HTU21D;54250;45.572;38.086;2024-03-08T05:10:01;-0.76;89.51
67364;HTU21D;54250;45.572;38.086;2024-03-08T05:12:28;-0.66;89.46
67364;HTU21D;54250;45.572;38.086;2024-03-08T05:14:54;-0.52;89.31
67364;HTU21D;54250;45.572;38.086;2024-03-08T05:17:21;-0.38;89.11
67364;HTU21D;54250;45.572;38.086;2024-03-08T05:19:50;-0.25;88.89
67364;HTU21D;54250;45.572;38.086;2024-03-08T05:22:16;-0.17;88.77
67364;HTU21D;54250;45.572;38.086;2024-03-08T05:24:43;-0.22;88.87
67364;HTU21D;54250;45.572;38.086;2024-03-08T05:27:09;-0.11;88.96
67364;HTU21D;54250;45.572;38.086;2024-03-08T05:29:35;-0.06;88.85
67364;HTU21D;54250;45.572;38.086;2024-03-08T05:32:01;-0.02;88.81
67364;HTU21D;54250;45.572;38.086;2024-03-08T05:34:28;0.04;88.83
67364;HTU21D;54250;45.572;38.086;2024-03-08T05:36:54;0.14;88.67
67364;HTU21D;54250;45.572;38.086;2024-03-08T05:39:20;0.21;88.56
67364;HTU21D;54250;45.572;38.086;2024-03-08T05:41:46;0.29;88.51
67364;HTU21D;54250;45.572;38.086;2024-03-08T05:44:13;0.49;88.45
67364;HTU21D;54250;45.572;38.086;2024-03-08T05:46:40;1.14;87.77
67364;HTU21D;54250;45.572;38.086;2024-03-08T05:49:06;1.82;85.85
67364;HTU21D;54250;45.572;38.086;2024-03-08T05:51:36;1.96;85.38
67364;HTU21D;54250;45.572;38.086;2024-03-08T05:54:04;2.00;85.84
67364;HTU21D;54250;45.572;38.086;2024-03-08T05:56:32;2.03;86.12
67364;HTU21D;54250;45.572;38.086;2024-03-08T05:58:58;2.09;86.35
67364;HTU21D;54250;45.572;38.086;2024-03-08T06:01:28;2.22;86.43
67364;HTU21D;54250;45.572;38.086;2024-03-08T06:03:54;2.12;86.56
67364;HTU21D;54250;45.572;38.086;2024-03-08T06:06:24;2.02;86.82
67364;HTU21D;54250;45.572;38.086;2024-03-08T06:08:52;1.99;87.08
67364;HTU21D;54250;45.572;38.086;2024-03-08T06:11:19;1.83;86.97
67364;HTU21D;54250;45.572;38.086;2024-03-08T06:13:46;1.90;87.25
67364;HTU21D;54250;45.572;38.086;2024-03-08T06:16:12;1.86;86.55
67364;HTU21D;54250;45.572;38.086;2024-03-08T06:18:38;1.60;86.80
67364;HTU21D;54250;45.572;38.086;2024-03-08T06:21:07;1.64;87.07
67364;HTU21D;54250;45.572;38.086;2024-03-08T06:23:41;1.66;86.78
67364;HTU21D;54250;45.572;38.086;2024-03-08T06:26:07;1.60;86.68
67364;HTU21D;54250;45.572;38.086;2024-03-08T06:28:34;1.54;86.80
67364;HTU21D;54250;45.572;38.086;2024-03-08T06:31:03;1.54;86.82
67364;HTU21D;54250;45.572;38.086;2024-03-08T06:33:29;1.53;86.82
67364;HTU21D;54250;45.572;38.086;2024-03-08T06:35:56;1.63;86.77
67364;HTU21D;54250;45.572;38.086;2024-03-08T06:38:25;1.65;86.55
67364;HTU21D;54250;45.572;38.086;2024-03-08T06:40:52;1.50;86.51
67364;HTU21D;54250;45.572;38.086;2024-03-08T06:43:18;1.39;86.83
67364;HTU21D;54250;45.572;38.086;2024-03-08T06:45:45;1.39;86.88
67364;HTU21D;54250;45.572;38.086;2024-03-08T06:48:17;1.53;86.60
67364;HTU21D;54250;45.572;38.086;2024-03-08T06:50:47;1.64;86.42
67364;HTU21D;54250;45.572;38.086;2024-03-08T06:53:13;1.65;86.30
67364;HTU21D;54250;45.572;38.086;2024-03-08T06:55:40;1.83;86.31
67364;HTU21D;54250;45.572;38.086;2024-03-08T06:58:06;2.01;86.06
67364;HTU21D;54250;45.572;38.086;2024-03-08T07:00:37;2.11;85.84
67364;HTU21D;54250;45.572;38.086;2024-03-08T07:03:04;2.26;85.93
67364;HTU21D;54250;45.572;38.086;2024-03-08T07:05:32;2.42;85.71
67364;HTU21D;54250;45.572;38.086;2024-03-08T07:07:58;2.52;85.61
67364;HTU21D;54250;45.572;38.086;2024-03-08T07:10:24;2.46;85.61
67364;HTU21D;54250;45.572;38.086;2024-03-08T07:12:51;2.39;85.78
67364;HTU21D;54250;45.572;38.086;2024-03-08T07:15:19;2.49;86.01
67364;HTU21D;54250;45.572;38.086;2024-03-08T07:17:49;2.52;85.69
67364;HTU21D;54250;45.572;38.086;2024-03-08T07:20:18;2.47;85.84
67364;HTU21D;54250;45.572;38.086;2024-03-08T07:22:45;2.56;85.80
67364;HTU21D;54250;45.572;38.086;2024-03-08T07:25:17;2.73;85.77
67364;HTU21D;54250;45.572;38.086;2024-03-08T07:27:55;2.95;85.31
67364;HTU21D;54250;45.572;38.086;2024-03-08T07:30:25;3.11;85.10
67364;HTU21D;54250;45.572;38.086;2024-03-08T07:33:10;3.17;84.75
67364;HTU21D;54250;45.572;38.086;2024-03-08T07:35:39;3.23;85.06
67364;HTU21D;54250;45.572;38.086;2024-03-08T07:38:06;3.40;84.99
67364;HTU21D;54250;45.572;38.086;2024-03-08T07:40:37;3.59;84.60
67364;HTU21D;54250;45.572;38.086;2024-03-08T07:43:09;3.63;84.42
67364;HTU21D;54250;45.572;38.086;2024-03-08T07:45:36;3.58;84.70
67364;HTU21D;54250;45.572;38.086;2024-03-08T07:48:03;3.55;84.79
67364;HTU21D;54250;45.572;38.086;2024-03-08T07:50:29;3.44;84.59
67364;HTU21D;54250;45.572;38.086;2024-03-08T07:52:56;3.39;85.00
67364;HTU21D;54250;45.572;38.086;2024-03-08T07:55:21;3.44;85.11
67364;HTU21D;54250;45.572;38.086;2024-03-08T07:57:49;3.50;84.93
67364;HTU21D;54250;45.572;38.086;2024-03-08T08:00:16;3.49;84.96
67364;HTU21D;54250;45.572;38.086;2024-03-08T08:02:44;3.46;84.93
67364;HTU21D;54250;45.572;38.086;2024-03-08T08:05:11;3.38;85.03
67364;HTU21D;54250;45.572;38.086;2024-03-08T08:07:37;3.29;84.94
67364;HTU21D;54250;45.572;38.086;2024-03-08T08:10:03;3.16;85.25
67364;HTU21D;54250;45.572;38.086;2024-03-08T08:12:31;3.14;85.20
67364;HTU21D;54250;45.572;38.086;2024-03-08T08:15:00;3.19;85.33
67364;HTU21D;54250;45.572;38.086;2024-03-08T08:17:26;3.32;84.97
67364;HTU21D;54250;45.572;38.086;2024-03-08T08:19:51;3.32;84.77
67364;HTU21D;54250;45.572;38.086;2024-03-08T08:22:17;3.32;84.77
67364;HTU21D;54250;45.572;38.086;2024-03-08T08:24:43;3.44;84.71
67364;HTU21D;54250;45.572;38.086;2024-03-08T08:27:09;3.39;84.43
67364;HTU21D;54250;45.572;38.086;2024-03-08T08:29:37;3.27;84.52
67364;HTU21D;54250;45.572;38.086;2024-03-08T08:32:03;3.17;84.87
67364;HTU21D;54250;45.572;38.086;2024-03-08T08:34:29;3.18;84.81
67364;HTU21D;54250;45.572;38.086;2024-03-08T08:36:55;3.30;84.91
67364;HTU21D;54250;45.572;38.086;2024-03-08T08:39:21;3.27;84.64
67364;HTU21D;54250;45.572;38.086;2024-03-08T08:41:51;3.32;84.66
67364;HTU21D;54250;45.572;38.086;2024-03-08T08:44:18;3.35;84.58
67364;HTU21D;54250;45.572;38.086;2024-03-08T08:46:44;3.43;84.61
67364;HTU21D;54250;45.572;38.086;2024-03-08T08:49:10;3.49;84.48
67364;HTU21D;54250;45.572;38.086;2024-03-08T08:51:37;3.53;84.45
67364;HTU21D;54250;45.572;38.086;2024-03-08T08:54:03;3.65;84.50
67364;HTU21D;54250;45.572;38.086;2024-03-08T08:56:29;3.90;84.17
67364;HTU21D;54250;45.572;38.086;2024-03-08T08:58:55;3.91;84.07
67364;HTU21D;54250;45.572;38.086;2024-03-08T09:01:21;3.93;84.23
67364;HTU21D;54250;45.572;38.086;2024-03-08T09:03:48;4.07;84.20
67364;HTU21D;54250;45.572;38.086;2024-03-08T09:06:16;4.06;84.07
67364;HTU21D;54250;45.572;38.086;2024-03-08T09:08:42;4.22;84.03
67364;HTU21D;54250;45.572;38.086;2024-03-08T09:11:10;4.26;83.86
67364;HTU21D;54250;45.572;38.086;2024-03-08T09:13:36;4.20;83.87
67364;HTU21D;54250;45.572;38.086;2024-03-08T09:16:04;4.26;84.11
67364;HTU21D;54250;45.572;38.086;2024-03-08T09:18:32;4.31;84.00
67364;HTU21D;54250;45.572;38.086;2024-03-08T09:20:59;4.33;84.02
67364;HTU21D;54250;45.572;38.086;2024-03-08T09:23:25;4.22;83.98
67364;HTU21D;54250;45.572;38.086;2024-03-08T09:25:58;4.09;84.02
67364;HTU21D;54250;45.572;38.086;2024-03-08T09:28:24;4.14;84.23
67364;HTU21D;54250;45.572;38.086;2024-03-08T09:30:52;4.19;83.84
67364;HTU21D;54250;45.572;38.086;2024-03-08T09:33:18;4.05;83.98
67364;HTU21D;54250;45.572;38.086;2024-03-08T09:35:46;3.95;84.16
67364;HTU21D;54250;45.572;38.086;2024-03-08T09:38:16;4.01;84.20
67364;HTU21D;54250;45.572;38.086;2024-03-08T09:40:43;4.28;83.94
67364;HTU21D;54250;45.572;38.086;2024-03-08T09:43:12;4.34;83.38
67364;HTU21D;54250;45.572;38.086;2024-03-08T09:45:40;4.48;83.63
67364;HTU21D;54250;45.572;38.086;2024-03-08T09:48:13;4.81;83.00
67364;HTU21D;54250;45.572;38.086;2024-03-08T09:50:42;4.95;82.87
67364;HTU21D;54250;45.572;38.086;2024-03-08T09:53:08;4.94;82.56
67364;HTU21D;54250;45.572;38.086;2024-03-08T09:55:38;4.88;83.00
67364;HTU21D;54250;45.572;38.086;2024-03-08T09:58:08;5.03;82.99
67364;HTU21D;54250;45.572;38.086;2024-03-08T10:00:54;5.38;82.55
67364;HTU21D;54250;45.572;38.086;2024-03-08T10:03:23;5.43;82.07
67364;HTU21D;54250;45.572;38.086;2024-03-08T10:05:51;5.41;82.36
67364;HTU21D;54250;45.572;38.086;2024-03-08T10:08:17;5.30;82.42
67364;HTU21D;54250;45.572;38.086;2024-03-08T10:10:44;5.36;82.41
67364;HTU21D;54250;45.572;38.086;2024-03-08T10:13:10;5.71;81.96
67364;HTU21D;54250;45.572;38.086;2024-03-08T10:15:39;6.21;81.46
67364;HTU21D;54250;45.572;38.086;2024-03-08T10:18:06;6.96;80.24
67364;HTU21D;54250;45.572;38.086;2024-03-08T10:20:33;8.01;78.43
67364;HTU21D;54250;45.572;38.086;2024-03-08T10:23:02;8.30;77.58
67364;HTU21D;54250;45.572;38.086;2024-03-08T10:25:32;7.83;78.52
67364;HTU21D;54250;45.572;38.086;2024-03-08T10:27:58;8.32;79.15
67364;HTU21D;54250;45.572;38.086;2024-03-08T10:30:24;9.65;76.43
67364;HTU21D;54250;45.572;38.086;2024-03-08T10:32:50;10.44;73.93
67364;HTU21D;54250;45.572;38.086;2024-03-08T10:35:17;10.51;74.80
67364;HTU21D;54250;45.572;38.086;2024-03-08T10:37:48;10.78;74.63
67364;HTU21D;54250;45.572;38.086;2024-03-08T10:40:19;11.01;74.88
67364;HTU21D;54250;45.572;38.086;2024-03-08T10:42:58;10.96;74.64
67364;HTU21D;54250;45.572;38.086;2024-03-08T10:45:35;10.41;75.91
67364;HTU21D;54250;45.572;38.086;2024-03-08T10:51:07;9.52;77.98
67364;HTU21D;54250;45.572;38.086;2024-03-08T10:53:34;9.30;78.66
67364;HTU21D;54250;45.572;38.086;2024-03-08T10:56:02;9.55;78.19
67364;HTU21D;54250;45.572;38.086;2024-03-08T10:58:29;9.84;77.69
67364;HTU21D;54250;45.572;38.086;2024-03-08T11:00:56;9.88;77.34
67364;HTU21D;54250;45.572;38.086;2024-03-08T11:06:10;8.59;78.76
67364;HTU21D;54250;45.572;38.086;2024-03-08T11:08:41;8.30;79.08
67364;HTU21D;54250;45.572;38.086;2024-03-08T11:14:01;8.31;78.54
67364;HTU21D;54250;45.572;38.086;2024-03-08T11:18:55;8.52;77.87
67364;HTU21D;54250;45.572;38.086;2024-03-08T11:21:26;8.65;77.59
67364;HTU21D;54250;45.572;38.086;2024-03-08T11:24:06;9.11;77.04
67364;HTU21D;54250;45.572;38.086;2024-03-08T11:26:32;9.20;76.35
67364;HTU21D;54250;45.572;38.086;2024-03-08T11:32:10;8.12;77.45
67364;HTU21D;54250;45.572;38.086;2024-03-08T11:34:37;7.59;78.30
67364;HTU21D;54250;45.572;38.086;2024-03-08T11:37:14;7.24;78.69
67364;HTU21D;54250;45.572;38.086;2024-03-08T11:39:52;7.02;78.97
67364;HTU21D;54250;45.572;38.086;2024-03-08T11:42:25;6.90;79.21
67364;HTU21D;54250;45.572;38.086;2024-03-08T11:44:54;7.07;79.06
67364;HTU21D;54250;45.572;38.086;2024-03-08T11:47:21;7.22;78.67
67364;HTU21D;54250;45.572;38.086;2024-03-08T11:49:47;7.19;78.68
67364;HTU21D;54250;45.572;38.086;2024-03-08T11:52:17;7.23;78.50
67364;HTU21D;54250;45.572;38.086;2024-03-08T11:54:54;7.04;78.56
67364;HTU21D;54250;45.572;38.086;2024-03-08T11:57:23;7.01;78.84
67364;HTU21D;54250;45.572;38.086;2024-03-08T11:59:52;7.22;78.84
67364;HTU21D;54250;45.572;38.086;2024-03-08T12:02:19;7.33;78.59
67364;HTU21D;54250;45.572;38.086;2024-03-08T12:04:45;7.59;78.34
67364;HTU21D;54250;45.572;38.086;2024-03-08T12:07:15;7.88;77.79
67364;HTU21D;54250;45.572;38.086;2024-03-08T12:10:14;7.87;77.42
67364;HTU21D;54250;45.572;38.086;2024-03-08T12:13:02;7.82;77.74
67364;HTU21D;54250;45.572;38.086;2024-03-08T12:15:37;7.73;78.13
67364;HTU21D;54250;45.572;38.086;2024-03-08T12:18:03;7.57;78.23
67364;HTU21D;54250;45.572;38.086;2024-03-08T12:20:30;7.44;78.55
67364;HTU21D;54250;45.572;38.086;2024-03-08T12:22:59;7.35;78.56
67364;HTU21D;54250;45.572;38.086;2024-03-08T12:25:33;7.13;78.69
67364;HTU21D;54250;45.572;38.086;2024-03-08T12:28:12;6.88;78.82
67364;HTU21D;54250;45.572;38.086;2024-03-08T12:30:47;6.83;79.00
67364;HTU21D;54250;45.572;38.086;2024-03-08T12:33:14;6.73;79.08
67364;HTU21D;54250;45.572;38.086;2024-03-08T12:35:40;6.63;78.85
67364;HTU21D;54250;45.572;38.086;2024-03-08T12:38:07;6.56;78.92
67364;HTU21D;54250;45.572;38.086;2024-03-08T12:40:34;6.53;78.82
67364;HTU21D;54250;45.572;38.086;2024-03-08T12:43:07;6.44;78.84
67364;HTU21D;54250;45.572;38.086;2024-03-08T12:45:33;6.54;78.89
67364;HTU21D;54250;45.572;38.086;2024-03-08T12:47:59;6.71;78.58
67364;HTU21D;54250;45.572;38.086;2024-03-08T12:50:25;6.81;78.25
67364;HTU21D;54250;45.572;38.086;2024-03-08T12:52:51;6.70;78.25
67364;HTU21D;54250;45.572;38.086;2024-03-08T12:55:21;6.56;78.45
67364;HTU21D;54250;45.572;38.086;2024-03-08T12:57:47;6.49;78.66
67364;HTU21D;54250;45.572;38.086;2024-03-08T13:00:14;6.44;78.69
67364;HTU21D;54250;45.572;38.086;2024-03-08T13:02:46;6.30;78.92
67364;HTU21D;54250;45.572;38.086;2024-03-08T13:05:13;6.24;79.05
67364;HTU21D;54250;45.572;38.086;2024-03-08T13:07:41;6.26;79.09
67364;HTU21D;54250;45.572;38.086;2024-03-08T13:10:15;6.23;78.92
67364;HTU21D;54250;45.572;38.086;2024-03-08T13:12:44;6.21;78.81
67364;HTU21D;54250;45.572;38.086;2024-03-08T13:15:11;6.09;78.98
67364;HTU21D;54250;45.572;38.086;2024-03-08T13:17:41;6.01;78.95
67364;HTU21D;54250;45.572;38.086;2024-03-08T13:20:10;5.96;78.94
67364;HTU21D;54250;45.572;38.086;2024-03-08T13:22:42;5.86;78.99
67364;HTU21D;54250;45.572;38.086;2024-03-08T13:25:08;5.77;78.92
67364;HTU21D;54250;45.572;38.086;2024-03-08T13:27:41;5.72;78.92
67364;HTU21D;54250;45.572;38.086;2024-03-08T13:30:09;5.71;78.88
67364;HTU21D;54250;45.572;38.086;2024-03-08T13:32:44;5.65;78.82
67364;HTU21D;54250;45.572;38.086;2024-03-08T13:35:11;5.66;78.82
67364;HTU21D;54250;45.572;38.086;2024-03-08T13:37:41;5.68;78.71
67364;HTU21D;54250;45.572;38.086;2024-03-08T13:40:08;5.60;78.80
67364;HTU21D;54250;45.572;38.086;2024-03-08T13:42:42;5.48;78.78
67364;HTU21D;54250;45.572;38.086;2024-03-08T13:45:09;5.38;78.87
67364;HTU21D;54250;45.572;38.086;2024-03-08T13:47:39;5.35;78.94
67364;HTU21D;54250;45.572;38.086;2024-03-08T13:50:08;5.36;78.90
67364;HTU21D;54250;45.572;38.086;2024-03-08T13:52:40;5.34;78.89
67364;HTU21D;54250;45.572;38.086;2024-03-08T13:55:07;5.28;78.93
67364;HTU21D;54250;45.572;38.086;2024-03-08T13:57:33;5.18;79.03
67364;HTU21D;54250;45.572;38.086;2024-03-08T13:59:59;5.08;79.21
67364;HTU21D;54250;45.572;38.086;2024-03-08T14:02:25;4.98;79.24
67364;HTU21D;54250;45.572;38.086;2024-03-08T14:04:54;4.92;79.11
67364;HTU21D;54250;45.572;38.086;2024-03-08T14:07:23;4.87;79.17
67364;HTU21D;54250;45.572;38.086;2024-03-08T14:09:49;4.81;79.01
67364;HTU21D;54250;45.572;38.086;2024-03-08T14:12:15;4.75;79.08
67364;HTU21D;54250;45.572;38.086;2024-03-08T14:14:41;4.66;79.11
67364;HTU21D;54250;45.572;38.086;2024-03-08T14:17:10;4.61;79.26
67364;HTU21D;54250;45.572;38.086;2024-03-08T14:19:37;4.53;79.32
67364;HTU21D;54250;45.572;38.086;2024-03-08T14:22:05;4.48;79.34
67364;HTU21D;54250;45.572;38.086;2024-03-08T14:24:31;4.39;79.46
67364;HTU21D;54250;45.572;38.086;2024-03-08T14:26:57;4.31;79.59
67364;HTU21D;54250;45.572;38.086;2024-03-08T14:29:27;4.26;79.60
67364;HTU21D;54250;45.572;38.086;2024-03-08T14:31:56;4.14;79.74
67364;HTU21D;54250;45.572;38.086;2024-03-08T14:34:25;4.01;79.93
67364;HTU21D;54250;45.572;38.086;2024-03-08T14:36:55;3.90;80.07
67364;HTU21D;54250;45.572;38.086;2024-03-08T14:39:22;3.83;80.18
67364;HTU21D;54250;45.572;38.086;2024-03-08T14:41:52;3.71;80.29
67364;HTU21D;54250;45.572;38.086;2024-03-08T14:44:23;3.59;80.45
67364;HTU21D;54250;45.572;38.086;2024-03-08T14:46:52;3.47;80.59
67364;HTU21D;54250;45.572;38.086;2024-03-08T14:49:18;3.35;80.75
67364;HTU21D;54250;45.572;38.086;2024-03-08T14:51:45;3.26;80.83
67364;HTU21D;54250;45.572;38.086;2024-03-08T14:54:11;3.15;80.94
67364;HTU21D;54250;45.572;38.086;2024-03-08T14:56:38;3.06;81.00
67364;HTU21D;54250;45.572;38.086;2024-03-08T14:59:07;2.94;81.06
67364;HTU21D;54250;45.572;38.086;2024-03-08T15:01:34;2.81;81.16
67364;HTU21D;54250;45.572;38.086;2024-03-08T15:04:02;2.70;81.23
67364;HTU21D;54250;45.572;38.086;2024-03-08T15:06:35;2.56;81.34
67364;HTU21D;54250;45.572;38.086;2024-03-08T15:09:03;2.47;81.31
67364;HTU21D;54250;45.572;38.086;2024-03-08T15:11:46;2.39;81.21
67364;HTU21D;54250;45.572;38.086;2024-03-08T15:14:14;2.25;81.34
67364;HTU21D;54250;45.572;38.086;2024-03-08T15:16:41;2.13;81.39
67364;HTU21D;54250;45.572;38.086;2024-03-08T15:19:08;2.03;81.36
67364;HTU21D;54250;45.572;38.086;2024-03-08T15:21:34;1.95;81.30
67364;HTU21D;54250;45.572;38.086;2024-03-08T15:24:02;1.85;81.31
67364;HTU21D;54250;45.572;38.086;2024-03-08T15:26:35;1.71;81.39
67364;HTU21D;54250;45.572;38.086;2024-03-08T15:29:01;1.60;81.50